Main page
METAR-TAF:

METAR-TAF

Airports :

Smith Field

Siloam Springs, Arkansas, United States

latitude: 36-12N, longitude: 094-29W, elevation: 984 ft

Current weather observation

The report was made 25 minutes ago, at 02:56 UTC
Wind 5 mph from the South
Temperature 84°F
Humidity 70%
Pressure 29.93 in. Hg
Visibility: 9 miles
Clear sky

METAR: KSLG 250256Z AUTO 17004KT 9SM CLR 29/23 A2993 RMK AO2 SLP118 6//// T02890228 53004 PNO $

Time: 22:21 (03:21 UTC)


TAF: missing

Weather observations and forecasts of more than 4000 airports (METAR and TAF reports).

The available stations are represented by yellow and red dots on the map.

Hover mouse over dot to see the name of the station.

Then click to see weather observations and forecasts.

To change the map : click on the green buttons with a black cross to zoom in, on the green button with a dash to zoom out, or on the green arrows for adjacent maps.


METAR-TAF: